Manea, United Kingdom
Current Conditions -  °F | °C
As of 11:08 AM on Friday 24 Oct 2014 (Local Time) from EGUN Reporting Station
Broken Clouds Broken Clouds  
Wind Chill: 61°   Ceiling: 1500
Heat Index: 61°   Visibility: 6mi
Dew Point: 61°   Wind: 15mph
Humidity: 100%   Direction: 220°SW
Pressure: 29.95"   Gusts: 18mph
Location:  52.48°N, 0.18°E
Report Text: EGUN 241008Z AUTO 22013G16KT 9999 BKN015 16/16 A2995 RMK AO2 CIG 015V110 BKN V SCT
Loading
Personal Weather Stations






























Interactive Weather Map
Tropical Storm Tracking
New forecast layout! Learn more

10-Day Weather Forecast

Advertisements
Track Severe Weather on mobile